createdAt,value
2023-05-15T00:03:33.541Z,100.00
2023-05-15T00:07:36.272Z,100.00
2023-05-15T00:11:38.290Z,100.00
2023-05-15T00:15:40.362Z,100.00
2023-05-15T00:19:42.529Z,100.00
2023-05-15T00:23:44.539Z,100.00
2023-05-15T00:27:46.643Z,100.00
2023-05-15T00:31:49.008Z,100.00
2023-05-15T00:35:51.174Z,100.00
2023-05-15T00:39:53.290Z,100.00
2023-05-15T00:43:55.802Z,100.00
2023-05-15T00:47:59.004Z,100.00
2023-05-15T00:52:03.581Z,100.00
2023-05-15T00:56:06.440Z,100.00
2023-05-15T01:00:10.510Z,100.00
2023-05-15T01:04:12.788Z,100.00
2023-05-15T01:08:22.512Z,100.00
2023-05-15T01:12:27.634Z,100.00
2023-05-15T01:16:29.691Z,100.00
2023-05-15T01:20:46.343Z,100.00
2023-05-15T01:25:29.510Z,100.00
2023-05-15T01:29:51.360Z,100.00
2023-05-15T01:33:59.121Z,100.00
2023-05-15T01:38:15.575Z,100.00
2023-05-15T01:42:19.402Z,100.00
2023-05-15T01:46:23.476Z,100.00
2023-05-15T01:50:27.792Z,100.00
2023-05-15T01:54:30.074Z,100.00
2023-05-15T01:58:32.364Z,100.00
2023-05-15T02:02:35.043Z,100.00
2023-05-15T02:06:37.995Z,100.00
2023-05-15T02:10:41.169Z,100.00
2023-05-15T02:14:43.947Z,100.00
2023-05-15T02:18:47.494Z,100.00
2023-05-15T02:22:49.563Z,100.00
2023-05-15T02:27:26.741Z,100.00
2023-05-15T02:31:38.116Z,100.00
2023-05-15T02:36:02.602Z,100.00
2023-05-15T02:40:08.365Z,100.00
2023-05-15T02:44:11.405Z,100.00
2023-05-15T02:48:14.720Z,100.00
2023-05-15T02:52:17.381Z,100.00
2023-05-15T02:56:19.481Z,100.00
2023-05-15T03:00:21.710Z,100.00
2023-05-15T03:04:23.856Z,100.00
2023-05-15T03:08:27.110Z,100.00
2023-05-15T03:12:29.126Z,100.00
2023-05-15T03:16:31.171Z,100.00
2023-05-15T03:20:33.233Z,100.00
2023-05-15T03:24:35.247Z,100.00
2023-05-15T03:28:37.798Z,100.00
2023-05-15T03:32:39.926Z,100.00
2023-05-15T03:36:41.972Z,100.00
2023-05-15T03:40:44.039Z,100.00
2023-05-15T03:44:46.027Z,100.00
2023-05-15T03:48:48.441Z,100.00
2023-05-15T03:52:50.590Z,100.00
2023-05-15T03:56:53.738Z,100.00
2023-05-15T04:00:55.833Z,100.00
2023-05-15T04:04:57.907Z,100.00
2023-05-15T04:08:59.994Z,100.00
2023-05-15T04:13:02.066Z,100.00
2023-05-15T04:17:04.328Z,100.00
2023-05-15T04:21:06.659Z,100.00
2023-05-15T04:25:09.522Z,99.96
2023-05-15T04:29:11.585Z,96.62
2023-05-15T04:33:13.721Z,91.19
2023-05-15T04:37:15.886Z,80.77
2023-05-15T04:41:18.566Z,71.86
2023-05-15T04:45:20.796Z,63.96
2023-05-15T04:49:22.824Z,57.75
2023-05-15T04:53:24.870Z,53.18
2023-05-15T04:57:27.121Z,48.64
2023-05-15T05:01:29.290Z,48.49
2023-05-15T05:05:31.498Z,47.31
2023-05-15T05:09:34.083Z,46.12
2023-05-15T05:13:36.114Z,43.75
2023-05-15T05:17:38.179Z,41.81
2023-05-15T05:21:40.210Z,41.86
2023-05-15T05:25:42.356Z,41.64
2023-05-15T05:29:44.601Z,41.11
2023-05-15T05:33:46.701Z,39.80
2023-05-15T05:37:48.733Z,38.60
2023-05-15T05:41:50.907Z,37.27
2023-05-15T05:45:53.036Z,35.78
2023-05-15T05:49:55.219Z,34.60
2023-05-15T05:53:57.349Z,34.31
2023-05-15T05:57:59.436Z,35.96
2023-05-15T06:02:01.571Z,35.85
2023-05-15T06:06:03.906Z,36.13
2023-05-15T06:10:09.408Z,36.44
2023-05-15T06:14:11.774Z,35.71
2023-05-15T06:18:14.075Z,36.53
2023-05-15T06:22:16.211Z,36.80
2023-05-15T06:26:18.325Z,34.55
2023-05-15T06:30:20.425Z,33.49
2023-05-15T06:34:22.417Z,33.24
2023-05-15T06:38:24.483Z,31.27
2023-05-15T06:42:27.004Z,32.57
2023-05-15T06:46:29.078Z,33.32
2023-05-15T06:50:31.160Z,32.79
2023-05-15T06:54:33.489Z,33.71
2023-05-15T06:58:35.567Z,32.86
2023-05-15T07:02:37.617Z,32.83
2023-05-15T07:06:39.643Z,31.99
2023-05-15T07:10:41.717Z,33.48
2023-05-15T07:14:43.774Z,40.08
2023-05-15T07:18:46.086Z,44.04
2023-05-15T07:22:55.813Z,46.69
2023-05-15T07:26:59.448Z,48.98
2023-05-15T07:31:02.959Z,51.19
2023-05-15T07:35:06.192Z,51.82
2023-05-15T07:39:08.246Z,51.87
2023-05-15T07:43:10.356Z,53.57
2023-05-15T07:47:12.524Z,54.86
2023-05-15T07:51:14.763Z,55.04
2023-05-15T07:55:16.786Z,55.79
2023-05-15T07:59:18.911Z,57.07
2023-05-15T08:03:21.125Z,57.00
2023-05-15T08:07:23.273Z,57.35
2023-05-15T08:11:25.274Z,57.30
2023-05-15T08:15:27.499Z,57.73
2023-05-15T08:19:29.617Z,59.75
2023-05-15T08:23:31.667Z,61.12
2023-05-15T08:27:33.720Z,61.38
2023-05-15T08:31:36.247Z,62.64
2023-05-15T08:35:38.374Z,63.77
2023-05-15T08:39:40.448Z,63.13
2023-05-15T08:43:44.058Z,61.23
2023-05-15T08:47:46.331Z,61.54
2023-05-15T08:51:48.753Z,60.33
2023-05-15T08:55:51.429Z,61.33
2023-05-15T08:59:54.480Z,61.04
2023-05-15T09:03:56.899Z,63.23
2023-05-15T09:08:03.373Z,63.29
2023-05-15T09:12:10.765Z,64.25
2023-05-15T09:16:13.048Z,62.68
2023-05-15T09:20:32.696Z,62.15
2023-05-15T09:24:37.903Z,61.98
2023-05-15T09:28:40.052Z,62.86
2023-05-15T09:32:42.203Z,62.31
2023-05-15T09:36:47.193Z,62.04
2023-05-15T09:40:49.319Z,61.58
2023-05-15T09:44:51.358Z,61.39
2023-05-15T09:48:56.283Z,59.94
2023-05-15T09:52:59.283Z,60.03
2023-05-15T09:57:11.785Z,59.79
2023-05-15T10:01:19.280Z,59.84
2023-05-15T10:05:28.652Z,59.08
2023-05-15T10:09:38.177Z,60.03
2023-05-15T10:13:40.604Z,59.51
2023-05-15T10:17:44.375Z,57.49
2023-05-15T10:21:47.508Z,55.67
2023-05-15T10:25:59.979Z,54.63
2023-05-15T10:30:04.139Z,54.91
2023-05-15T10:34:06.879Z,54.31
2023-05-15T10:38:10.574Z,52.72
2023-05-15T10:42:13.382Z,53.34
2023-05-15T10:46:16.690Z,51.72
2023-05-15T10:50:18.818Z,51.06
2023-05-15T10:54:22.261Z,51.28
2023-05-15T10:58:24.432Z,51.40
2023-05-15T11:02:29.471Z,49.00
2023-05-15T11:06:32.399Z,49.29
2023-05-15T11:10:34.312Z,50.06
2023-05-15T11:14:39.011Z,50.41
2023-05-15T11:18:41.208Z,50.83
2023-05-15T11:22:43.293Z,51.47
2023-05-15T11:26:45.363Z,52.87
2023-05-15T11:30:51.203Z,53.87
2023-05-15T11:35:00.180Z,55.07
2023-05-15T11:39:02.345Z,55.15
2023-05-15T11:43:06.593Z,56.07
2023-05-15T11:47:11.812Z,56.01
2023-05-15T11:51:25.896Z,53.55
2023-05-15T11:55:29.271Z,52.45
2023-05-15T11:59:34.051Z,53.83
2023-05-15T12:03:36.468Z,54.67
2023-05-15T12:07:40.908Z,55.91
2023-05-15T12:11:55.750Z,59.00
2023-05-15T12:15:58.420Z,52.56
2023-05-15T12:20:01.188Z,53.00
2023-05-15T12:24:08.254Z,60.21
2023-05-15T12:28:11.792Z,61.85
2023-05-15T12:32:13.908Z,59.02
2023-05-15T12:36:20.847Z,58.12
2023-05-15T12:40:24.006Z,55.20
2023-05-15T12:44:27.215Z,53.84
2023-05-15T12:48:32.028Z,57.19
2023-05-15T12:52:34.143Z,60.93
2023-05-15T12:56:36.166Z,62.55
2023-05-15T13:00:40.776Z,64.09
2023-05-15T13:04:42.826Z,65.57
2023-05-15T13:08:45.876Z,64.23
2023-05-15T13:12:52.109Z,63.81
2023-05-15T13:16:54.162Z,64.51
2023-05-15T13:20:56.192Z,64.87
2023-05-15T13:24:58.467Z,65.83
2023-05-15T13:29:01.535Z,65.07
2023-05-15T13:33:03.860Z,67.33
2023-05-15T13:37:05.976Z,71.34
2023-05-15T13:41:09.082Z,76.88
2023-05-15T13:45:16.398Z,79.15
2023-05-15T13:49:18.747Z,79.78
2023-05-15T13:53:21.275Z,77.22
2023-05-15T13:57:23.368Z,79.41
2023-05-15T14:01:25.448Z,82.42
2023-05-15T14:05:27.512Z,84.36
2023-05-15T14:09:29.589Z,84.86
2023-05-15T14:13:34.313Z,85.46
2023-05-15T14:17:36.395Z,86.65
2023-05-15T14:21:39.351Z,87.40
2023-05-15T14:25:41.503Z,87.02
2023-05-15T14:29:44.848Z,86.75
2023-05-15T14:33:46.931Z,83.08
2023-05-15T14:37:49.528Z,84.81
2023-05-15T14:41:51.600Z,85.04
2023-05-15T14:45:53.660Z,85.39
2023-05-15T14:49:55.722Z,86.96
2023-05-15T14:53:58.124Z,87.00
2023-05-15T14:58:00.284Z,86.82
2023-05-15T15:02:02.402Z,86.35
2023-05-15T15:06:04.687Z,86.49
2023-05-15T15:10:07.055Z,86.46
2023-05-15T15:14:09.095Z,87.39
2023-05-15T15:18:11.232Z,87.90
2023-05-15T15:22:13.364Z,89.25
2023-05-15T15:26:15.726Z,89.64
2023-05-15T15:30:18.068Z,86.94
2023-05-15T15:34:20.413Z,84.88
2023-05-15T15:38:22.558Z,83.99
2023-05-15T15:42:25.032Z,83.28
2023-05-15T15:46:27.170Z,79.09
2023-05-15T15:50:29.501Z,80.56
2023-05-15T15:54:33.131Z,82.52
2023-05-15T15:58:35.305Z,76.69
2023-05-15T16:02:37.455Z,76.11
2023-05-15T16:06:39.857Z,77.67
2023-05-15T16:10:41.940Z,79.50
2023-05-15T16:14:44.304Z,82.39
2023-05-15T16:18:46.441Z,85.32
2023-05-15T16:22:48.640Z,85.72
2023-05-15T16:26:51.321Z,85.28
2023-05-15T16:30:53.661Z,82.61
2023-05-15T16:34:56.056Z,82.34
2023-05-15T16:38:59.942Z,81.90
2023-05-15T16:43:02.000Z,81.86
2023-05-15T16:47:04.357Z,83.62
2023-05-15T16:51:06.408Z,84.79
2023-05-15T16:55:08.524Z,84.33
2023-05-15T16:59:10.852Z,84.71
2023-05-15T17:03:13.309Z,85.26
2023-05-15T17:07:15.352Z,86.34
2023-05-15T17:11:17.448Z,86.48
2023-05-15T17:15:19.618Z,85.92
2023-05-15T17:19:21.691Z,84.88
2023-05-15T17:23:24.329Z,82.74
2023-05-15T17:27:26.410Z,81.34
2023-05-15T17:31:29.448Z,81.82
2023-05-15T17:35:33.024Z,78.76
2023-05-15T17:39:35.742Z,79.14
2023-05-15T17:43:37.783Z,79.53
2023-05-15T17:47:40.189Z,79.53
2023-05-15T17:51:42.213Z,79.22
2023-05-15T17:55:44.319Z,77.88
2023-05-15T17:59:46.429Z,77.27
2023-05-15T18:03:48.685Z,75.67
2023-05-15T18:07:50.718Z,75.93
2023-05-15T18:11:52.842Z,75.92
2023-05-15T18:15:54.933Z,76.09
2023-05-15T18:19:57.010Z,77.74
2023-05-15T18:23:59.037Z,79.85
2023-05-15T18:28:01.048Z,82.92
2023-05-15T18:32:03.298Z,85.10
2023-05-15T18:36:07.398Z,86.52
2023-05-15T18:40:10.462Z,86.20
2023-05-15T18:44:12.503Z,85.85
2023-05-15T18:48:14.792Z,86.40
2023-05-15T18:52:18.599Z,85.53
2023-05-15T18:56:21.813Z,86.33
2023-05-15T19:00:37.247Z,86.20
2023-05-15T19:04:40.617Z,87.25
2023-05-15T19:08:42.630Z,88.63
2023-05-15T19:12:45.268Z,89.20
2023-05-15T19:16:47.407Z,88.09
2023-05-15T19:20:50.451Z,87.72
2023-05-15T19:24:52.509Z,88.55
2023-05-15T19:28:54.937Z,90.41
2023-05-15T19:32:56.975Z,92.34
2023-05-15T19:36:59.022Z,92.54
2023-05-15T19:41:01.042Z,93.29
2023-05-15T19:45:03.178Z,94.07
2023-05-15T19:49:05.949Z,94.39
2023-05-15T19:53:08.264Z,94.82
2023-05-15T19:57:10.346Z,96.16
2023-05-15T20:01:12.368Z,95.96
2023-05-15T20:05:15.289Z,95.82
2023-05-15T20:09:17.296Z,96.37
2023-05-15T20:13:21.910Z,98.07
2023-05-15T20:17:24.156Z,98.80
2023-05-15T20:21:26.240Z,99.36
2023-05-15T20:25:29.454Z,99.87
2023-05-15T20:29:31.872Z,100.00
2023-05-15T20:33:33.934Z,100.00
2023-05-15T20:37:36.926Z,100.00
2023-05-15T20:41:38.937Z,99.26
2023-05-15T20:45:41.149Z,98.58
2023-05-15T20:49:43.747Z,98.72
2023-05-15T20:53:45.818Z,98.71
2023-05-15T20:57:48.987Z,98.88
2023-05-15T21:01:51.084Z,99.02
2023-05-15T21:05:54.833Z,99.87
2023-05-15T21:09:58.755Z,100.00
2023-05-15T21:14:01.293Z,100.00
2023-05-15T21:18:03.853Z,100.00
2023-05-15T21:22:06.498Z,100.00
2023-05-15T21:26:08.511Z,100.00
2023-05-15T21:30:11.485Z,100.00
2023-05-15T21:34:13.540Z,100.00
2023-05-15T21:38:15.829Z,100.00
2023-05-15T21:42:17.841Z,100.00
2023-05-15T21:46:20.129Z,100.00
2023-05-15T21:50:22.176Z,100.00
2023-05-15T21:54:24.310Z,100.00
2023-05-15T21:58:26.535Z,100.00
2023-05-15T22:02:28.588Z,100.00
2023-05-15T22:06:31.057Z,100.00
2023-05-15T22:10:33.076Z,100.00
2023-05-15T22:14:35.192Z,100.00
2023-05-15T22:18:37.735Z,100.00
2023-05-15T22:22:42.009Z,100.00
2023-05-15T22:26:44.043Z,100.00
2023-05-15T22:30:46.260Z,100.00
2023-05-15T22:34:48.296Z,100.00
2023-05-15T22:38:50.419Z,100.00
2023-05-15T22:42:52.457Z,100.00
2023-05-15T22:46:54.522Z,100.00
2023-05-15T22:50:57.783Z,100.00
2023-05-15T22:54:59.827Z,100.00
2023-05-15T22:59:01.849Z,100.00
2023-05-15T23:03:03.874Z,100.00
2023-05-15T23:07:06.212Z,100.00
2023-05-15T23:11:08.277Z,100.00
2023-05-15T23:15:10.668Z,100.00
2023-05-15T23:19:12.777Z,100.00
2023-05-15T23:23:15.144Z,100.00
2023-05-15T23:27:17.188Z,100.00
2023-05-15T23:31:20.042Z,100.00
2023-05-15T23:35:22.449Z,100.00
2023-05-15T23:39:24.559Z,100.00
2023-05-15T23:43:26.701Z,100.00
2023-05-15T23:47:29.129Z,100.00
2023-05-15T23:51:31.237Z,100.00
2023-05-15T23:55:33.252Z,100.00
2023-05-15T23:59:35.385Z,100.00
